Time;durP1;ratioP1;P1;durP2;ratioP2;P2;SDS_P1;SDS_P2;PMS_P1;PMS_P2;Temp;Humidity;BMP_temperature;BMP_pressure;BME280_temperature;BME280_humidity;BME280_pressure;Samples;Min_cycle;Max_cycle;Signal;HPM_P1;HPM_P2
2022/08/05 00:01:33;;;;;;;0.88;0.88;;;25.70;99.90;;;;;;5030706;28;20201;-67
2022/08/05 00:04:00;;;;;;;0.90;0.90;;;25.70;99.90;;;;;;5032886;28;20288;-68
2022/08/05 00:06:27;;;;;;;0.93;0.93;;;25.70;99.90;;;;;;5033282;28;20303;-69
2022/08/05 00:08:54;;;;;;;0.77;0.77;;;25.60;99.90;;;;;;5033750;28;20319;-69
2022/08/05 00:11:22;;;;;;;0.80;0.80;;;25.50;99.90;;;;;;5043880;28;20204;-69
2022/08/05 00:13:49;;;;;;;0.70;0.70;;;25.50;99.90;;;;;;5043498;28;20228;-69
2022/08/05 00:16:16;;;;;;;0.68;0.68;;;25.40;99.90;;;;;;5037346;28;20224;-69
2022/08/05 00:18:45;;;;;;;0.82;0.82;;;25.40;99.90;;;;;;5031405;28;20295;-68
2022/08/05 00:21:12;;;;;;;0.80;0.80;;;25.50;99.90;;;;;;5032964;28;20284;-68
2022/08/05 00:23:40;;;;;;;0.82;0.80;;;25.60;99.90;;;;;;5029425;28;20687;-70
2022/08/05 00:26:08;;;;;;;0.80;0.80;;;25.50;99.90;;;;;;5032058;28;20212;-69
2022/08/05 00:28:36;;;;;;;0.80;0.80;;;25.60;99.90;;;;;;5032060;28;20314;-68
2022/08/05 00:31:04;;;;;;;1.13;0.90;;;25.60;99.90;;;;;;5029663;28;20287;-68
2022/08/05 00:33:30;;;;;;;0.82;0.82;;;25.60;99.90;;;;;;5030708;28;20282;-69
2022/08/05 00:35:58;;;;;;;0.80;0.80;;;25.50;99.90;;;;;;5046955;28;20682;-69
2022/08/05 00:38:25;;;;;;;0.80;0.80;;;25.50;99.90;;;;;;5049229;28;20200;-68
2022/08/05 00:40:53;;;;;;;0.80;0.80;;;25.50;99.90;;;;;;5036167;28;20755;-69
2022/08/05 00:43:20;;;;;;;0.80;0.80;;;25.40;99.90;;;;;;5033231;28;20288;-68
2022/08/05 00:45:49;;;;;;;0.90;0.90;;;25.40;99.90;;;;;;5029212;28;20560;-69
2022/08/05 00:48:18;;;;;;;0.80;0.80;;;25.30;99.90;;;;;;5033114;28;20224;-68
2022/08/05 00:50:47;;;;;;;0.85;0.85;;;25.20;99.90;;;;;;5032913;28;20287;-69
2022/08/05 00:53:16;;;;;;;0.95;0.95;;;25.20;99.90;;;;;;5033257;28;20296;-68
2022/08/05 00:55:43;;;;;;;0.85;0.85;;;25.20;99.90;;;;;;5033349;28;20200;-67
2022/08/05 00:58:11;;;;;;;0.82;0.82;;;25.00;99.90;;;;;;5032725;28;20307;-69
2022/08/05 01:00:38;;;;;;;0.60;0.60;;;25.00;99.90;;;;;;5028364;28;20225;-68
2022/08/05 01:03:07;;;;;;;0.80;0.80;;;25.00;99.90;;;;;;5036528;28;20622;-69
2022/08/05 01:05:34;;;;;;;0.77;0.77;;;24.90;99.90;;;;;;5035757;28;20283;-68
2022/08/05 01:08:00;;;;;;;0.88;0.88;;;24.90;99.90;;;;;;5034471;28;20741;-69
2022/08/05 01:10:30;;;;;;;1.00;1.00;;;24.90;99.90;;;;;;5033061;28;20665;-68
2022/08/05 01:13:06;;;;;;;0.90;0.90;;;24.80;99.90;;;;;;5033176;28;20197;-68
2022/08/05 01:15:39;;;;;;;0.93;0.93;;;24.80;99.90;;;;;;5035448;28;20214;-68
2022/08/05 01:18:13;;;;;;;0.90;0.90;;;24.70;99.90;;;;;;5033053;28;20260;-68
2022/08/05 01:20:50;;;;;;;0.80;0.80;;;24.70;99.90;;;;;;5029022;28;20204;-69
2022/08/05 01:23:28;;;;;;;0.80;0.80;;;24.70;99.90;;;;;;5031706;28;20201;-69
2022/08/05 01:26:11;;;;;;;0.80;0.80;;;24.70;99.90;;;;;;5032127;28;20291;-69
2022/08/05 01:28:45;;;;;;;0.90;0.90;;;24.70;99.90;;;;;;5031544;28;20235;-69
2022/08/05 01:31:19;;;;;;;0.93;0.93;;;24.70;99.90;;;;;;5026925;28;20208;-69
2022/08/05 01:33:51;;;;;;;0.70;0.70;;;24.70;99.90;;;;;;5025400;28;20666;-68
2022/08/05 01:36:19;;;;;;;0.73;0.73;;;24.60;99.90;;;;;;5026574;28;20223;-67
2022/08/05 01:38:48;;;;;;;0.82;0.82;;;24.60;99.90;;;;;;5032703;28;20821;-68
2022/08/05 01:41:18;;;;;;;0.80;0.80;;;24.60;99.90;;;;;;5034243;28;20233;-68
2022/08/05 01:43:48;;;;;;;0.80;0.80;;;24.60;99.90;;;;;;5033171;28;20283;-69
2022/08/05 01:46:16;;;;;;;0.85;0.85;;;24.60;99.90;;;;;;5031717;28;20197;-69
2022/08/05 01:48:45;;;;;;;0.88;0.88;;;24.50;99.90;;;;;;5031716;28;20220;-69
2022/08/05 01:51:14;;;;;;;0.90;0.90;;;24.50;99.90;;;;;;5031587;28;20205;-69
2022/08/05 01:53:42;;;;;;;0.80;0.80;;;24.60;99.90;;;;;;5023899;28;20200;-69
2022/08/05 01:56:10;;;;;;;0.82;0.82;;;24.60;99.90;;;;;;5031449;28;20209;-68
2022/08/05 01:58:38;;;;;;;0.88;0.88;;;24.60;99.90;;;;;;5029855;28;20219;-68
2022/08/05 02:01:08;;;;;;;0.70;0.70;;;24.60;99.90;;;;;;5036262;28;20200;-68
2022/08/05 02:03:38;;;;;;;1.85;1.02;;;24.50;99.90;;;;;;5034019;28;20229;-68
2022/08/05 02:06:08;;;;;;;0.80;0.80;;;24.50;99.90;;;;;;5039327;28;20203;-68
2022/08/05 02:08:35;;;;;;;0.77;0.77;;;24.50;99.90;;;;;;5033768;28;20315;-68
2022/08/05 02:11:07;;;;;;;0.70;0.70;;;24.50;99.90;;;;;;5031821;28;20318;-68
2022/08/05 02:13:40;;;;;;;0.88;0.88;;;24.50;99.90;;;;;;5031350;28;20201;-68
2022/08/05 02:16:16;;;;;;;0.80;0.80;;;24.60;99.90;;;;;;5031709;28;20204;-69
2022/08/05 02:18:49;;;;;;;0.80;0.80;;;24.70;99.90;;;;;;5023141;28;20226;-68
2022/08/05 02:21:18;;;;;;;0.77;0.77;;;24.70;99.90;;;;;;5035390;28;20236;-69
2022/08/05 02:23:48;;;;;;;1.55;1.02;;;24.70;99.90;;;;;;5035405;28;20631;-68
2022/08/05 02:26:21;;;;;;;0.90;0.90;;;24.70;99.90;;;;;;5035551;28;20657;-70
2022/08/05 02:28:49;;;;;;;0.80;0.80;;;24.70;99.90;;;;;;5028456;28;20234;-68
2022/08/05 02:31:23;;;;;;;0.95;0.95;;;24.70;99.90;;;;;;5035003;28;20608;-68
2022/08/05 02:33:53;;;;;;;0.80;0.80;;;24.70;99.90;;;;;;5028849;28;20204;-68
2022/08/05 02:36:23;;;;;;;1.30;1.27;;;24.70;99.90;;;;;;5035219;28;20763;-68
2022/08/05 02:38:52;;;;;;;0.80;0.80;;;24.60;99.90;;;;;;5035804;28;20303;-69
2022/08/05 02:41:21;;;;;;;0.82;0.82;;;24.60;99.90;;;;;;5036177;28;20705;-68
2022/08/05 02:43:50;;;;;;;0.80;0.80;;;24.60;99.90;;;;;;5035356;28;20307;-69
2022/08/05 02:46:21;;;;;;;0.80;0.80;;;24.50;99.90;;;;;;5033579;28;20336;-69
2022/08/05 02:48:49;;;;;;;0.80;0.80;;;24.50;99.90;;;;;;5033483;28;20232;-69
2022/08/05 02:51:18;;;;;;;1.13;1.13;;;24.40;99.90;;;;;;5032034;28;20228;-67
2022/08/05 02:53:45;;;;;;;1.20;0.90;;;24.50;99.90;;;;;;5034422;28;20262;-68
2022/08/05 02:56:14;;;;;;;0.85;0.85;;;24.40;99.90;;;;;;5034714;28;20201;-68
2022/08/05 02:58:41;;;;;;;0.82;0.82;;;24.40;99.90;;;;;;5028002;28;20217;-67
2022/08/05 03:01:11;;;;;;;0.70;0.70;;;24.30;99.90;;;;;;5037645;28;20205;-68
2022/08/05 03:03:41;;;;;;;0.95;0.95;;;24.40;99.90;;;;;;5033539;28;20207;-67
2022/08/05 03:06:10;;;;;;;0.93;0.93;;;24.40;99.90;;;;;;5030669;28;20216;-68
2022/08/05 03:08:38;;;;;;;0.90;0.90;;;24.40;99.90;;;;;;5034197;28;20674;-68
2022/08/05 03:11:05;;;;;;;0.98;0.98;;;24.40;99.90;;;;;;5033963;28;20240;-69
2022/08/05 03:13:31;;;;;;;0.80;0.80;;;24.40;99.90;;;;;;5033812;28;20315;-69
2022/08/05 03:15:58;;;;;;;1.10;1.10;;;24.50;99.90;;;;;;5034211;28;20209;-68
2022/08/05 03:18:25;;;;;;;0.77;0.77;;;24.50;99.90;;;;;;5033609;28;20244;-68
2022/08/05 03:20:53;;;;;;;0.90;0.90;;;24.60;99.90;;;;;;5033981;28;20274;-67
2022/08/05 03:23:20;;;;;;;1.00;1.00;;;24.60;99.90;;;;;;5033905;28;20283;-69
2022/08/05 03:25:47;;;;;;;1.05;1.05;;;24.60;99.90;;;;;;5034109;28;20197;-68
2022/08/05 03:28:15;;;;;;;0.88;0.88;;;24.60;99.90;;;;;;5033171;28;20229;-68
2022/08/05 03:30:43;;;;;;;0.90;0.90;;;24.70;99.90;;;;;;5034511;28;20205;-68
2022/08/05 03:33:10;;;;;;;1.35;0.90;;;24.80;99.90;;;;;;5033517;28;20295;-71
2022/08/05 03:35:37;;;;;;;0.88;0.88;;;24.80;99.90;;;;;;5034356;28;20228;-68
2022/08/05 03:38:05;;;;;;;0.80;0.80;;;24.80;99.90;;;;;;5053600;28;20232;-69
2022/08/05 03:40:33;;;;;;;0.80;0.80;;;24.80;99.90;;;;;;5046750;28;20244;-68
2022/08/05 03:43:00;;;;;;;1.05;1.00;;;24.90;99.90;;;;;;5036679;28;20236;-68
2022/08/05 03:45:26;;;;;;;0.82;0.82;;;24.90;99.90;;;;;;5034349;28;20287;-68
2022/08/05 03:47:53;;;;;;;1.00;1.00;;;24.90;99.90;;;;;;5027259;28;20260;-69
2022/08/05 03:50:20;;;;;;;0.90;0.90;;;25.00;99.90;;;;;;5033633;28;20254;-69
2022/08/05 03:52:55;;;;;;;0.90;0.90;;;25.00;99.90;;;;;;5028555;28;20276;-69
2022/08/05 03:55:29;;;;;;;0.85;0.85;;;25.00;99.90;;;;;;5035533;28;20334;-69
2022/08/05 03:57:57;;;;;;;0.70;0.70;;;24.90;99.90;;;;;;5035266;28;20224;-68
2022/08/05 04:00:28;;;;;;;1.00;1.00;;;24.80;99.90;;;;;;5035063;28;20232;-68
2022/08/05 04:02:57;;;;;;;1.00;1.00;;;24.90;99.90;;;;;;5034831;28;20201;-68
2022/08/05 04:05:25;;;;;;;0.90;0.90;;;24.80;99.90;;;;;;5027586;28;20205;-69
2022/08/05 04:07:53;;;;;;;0.75;0.75;;;24.90;99.90;;;;;;5035408;28;20235;-68
2022/08/05 04:10:20;;;;;;;0.80;0.80;;;25.00;99.90;;;;;;5036173;28;20230;-68
2022/08/05 04:12:48;;;;;;;0.88;0.88;;;25.10;99.90;;;;;;5033876;28;20196;-68
2022/08/05 04:15:15;;;;;;;0.77;0.77;;;25.10;99.90;;;;;;5034066;28;20733;-69
2022/08/05 04:17:42;;;;;;;1.02;1.00;;;25.10;99.90;;;;;;5027430;28;20285;-69
2022/08/05 04:20:18;;;;;;;0.95;0.95;;;25.20;99.90;;;;;;5033261;28;20285;-68
2022/08/05 04:22:45;;;;;;;0.98;0.98;;;25.20;99.90;;;;;;5033264;28;20205;-68
2022/08/05 04:25:12;;;;;;;2.38;1.15;;;25.30;99.90;;;;;;5033338;28;20216;-69
2022/08/05 04:27:40;;;;;;;1.75;1.10;;;25.20;99.90;;;;;;5033247;28;20244;-68
2022/08/05 04:30:10;;;;;;;1.25;1.13;;;25.20;99.90;;;;;;5032467;28;20215;-68
2022/08/05 04:32:37;;;;;;;2.97;1.20;;;25.10;99.90;;;;;;5032816;28;20240;-69
2022/08/05 04:35:04;;;;;;;1.38;1.27;;;25.10;99.90;;;;;;5032368;28;20299;-69
2022/08/05 04:37:31;;;;;;;2.05;1.15;;;25.00;99.90;;;;;;5032541;28;20270;-69
2022/08/05 04:39:58;;;;;;;1.02;1.00;;;25.00;99.90;;;;;;5033761;28;20197;-68
2022/08/05 04:42:25;;;;;;;4.53;1.15;;;25.00;99.90;;;;;;5033358;28;20222;-67
2022/08/05 04:44:52;;;;;;;1.23;1.13;;;25.00;99.90;;;;;;5033716;28;20243;-68
2022/08/05 04:47:20;;;;;;;1.02;1.02;;;25.00;99.90;;;;;;5032711;28;20225;-69
2022/08/05 04:49:47;;;;;;;1.00;1.00;;;25.10;99.90;;;;;;5029157;28;20253;-68
2022/08/05 04:52:14;;;;;;;4.43;1.63;;;25.20;99.90;;;;;;5034210;28;20207;-71
2022/08/05 04:54:41;;;;;;;1.13;1.02;;;25.10;99.90;;;;;;5034584;28;20201;-69
2022/08/05 04:57:08;;;;;;;1.83;1.13;;;25.10;99.90;;;;;;5030076;28;20239;-67
2022/08/05 04:59:35;;;;;;;2.28;1.02;;;25.10;99.90;;;;;;5036432;28;20200;-69
2022/08/05 05:02:01;;;;;;;0.90;0.90;;;25.10;99.90;;;;;;5036570;28;20625;-69
2022/08/05 05:04:30;;;;;;;1.00;1.00;;;25.20;99.90;;;;;;5032207;28;20724;-68
2022/08/05 05:06:56;;;;;;;1.40;1.30;;;25.20;99.90;;;;;;5032277;28;20268;-68
2022/08/05 05:09:23;;;;;;;1.30;1.00;;;25.20;99.90;;;;;;5031941;28;20311;-69
2022/08/05 05:11:50;;;;;;;1.30;1.20;;;25.20;99.90;;;;;;5033136;28;20201;-67
2022/08/05 05:14:17;;;;;;;1.30;1.10;;;25.20;99.90;;;;;;5032297;28;20208;-69
2022/08/05 05:16:44;;;;;;;1.48;1.38;;;25.10;99.90;;;;;;5032572;28;20239;-69
2022/08/05 05:19:11;;;;;;;1.10;1.10;;;25.00;99.90;;;;;;5080991;22;20838;-62
2022/08/05 05:21:39;;;;;;;2.45;1.30;;;24.90;99.90;;;;;;5079920;28;20286;-62
2022/08/05 05:24:06;;;;;;;1.38;1.25;;;24.80;99.90;;;;;;5082398;28;20235;-62
2022/08/05 05:26:33;;;;;;;1.20;1.20;;;24.80;99.90;;;;;;5071149;28;21478;-62
2022/08/05 05:29:01;;;;;;;1.15;1.00;;;24.80;99.90;;;;;;5068562;28;20905;-62
2022/08/05 05:31:28;;;;;;;1.13;1.13;;;24.80;99.90;;;;;;5067028;28;20200;-62
2022/08/05 05:33:55;;;;;;;1.20;1.20;;;24.70;99.90;;;;;;5066701;28;20678;-62
2022/08/05 05:36:22;;;;;;;1.40;1.30;;;24.70;99.90;;;;;;5066867;28;20199;-63
2022/08/05 05:38:50;;;;;;;1.40;1.30;;;24.70;99.90;;;;;;5058684;28;20215;-62
2022/08/05 05:41:17;;;;;;;1.10;1.10;;;24.80;99.90;;;;;;5060934;28;20632;-60
2022/08/05 05:43:44;;;;;;;1.13;1.13;;;25.00;99.90;;;;;;5062545;28;20733;-63
2022/08/05 05:46:10;;;;;;;1.05;1.05;;;25.10;99.90;;;;;;5060318;28;20295;-63
2022/08/05 05:48:37;;;;;;;1.67;1.15;;;25.20;99.90;;;;;;5060376;28;20749;-64
2022/08/05 05:51:04;;;;;;;1.02;1.02;;;25.00;99.90;;;;;;5061386;28;20242;-62
2022/08/05 05:53:31;;;;;;;1.00;1.00;;;24.80;99.90;;;;;;5067502;28;20219;-63
2022/08/05 05:55:59;;;;;;;1.08;1.08;;;24.80;99.90;;;;;;5069298;28;20290;-63
2022/08/05 05:58:26;;;;;;;1.13;1.08;;;24.70;99.90;;;;;;5066724;28;20297;-63
2022/08/05 06:00:53;;;;;;;1.02;1.02;;;24.60;99.90;;;;;;5064827;28;20240;-62
2022/08/05 06:03:20;;;;;;;1.13;1.13;;;24.60;99.90;;;;;;5070474;28;20233;-63
2022/08/05 06:05:47;;;;;;;1.65;1.25;;;24.60;99.90;;;;;;5069077;28;20279;-63
2022/08/05 06:08:14;;;;;;;0.90;0.90;;;24.60;99.90;;;;;;5071310;28;20267;-63
2022/08/05 06:10:41;;;;;;;1.17;1.17;;;24.80;99.90;;;;;;5061037;28;20280;-62
2022/08/05 06:13:09;;;;;;;1.15;0.90;;;24.90;99.90;;;;;;5065260;28;20290;-63
2022/08/05 06:15:36;;;;;;;1.00;1.00;;;25.00;99.90;;;;;;5066484;28;20243;-63
2022/08/05 06:18:03;;;;;;;0.90;0.90;;;25.00;99.90;;;;;;5066094;28;20656;-64
2022/08/05 06:20:30;;;;;;;2.45;1.10;;;25.00;99.90;;;;;;5068663;28;20246;-63
2022/08/05 06:22:58;;;;;;;1.63;1.00;;;25.00;99.90;;;;;;5066201;28;20242;-63
2022/08/05 06:25:25;;;;;;;0.90;0.90;;;25.00;99.90;;;;;;5071235;28;20207;-63
2022/08/05 06:27:51;;;;;;;1.60;1.10;;;25.00;99.90;;;;;;5061647;28;20724;-62
2022/08/05 06:30:20;;;;;;;1.10;0.98;;;25.00;99.90;;;;;;5064325;28;20234;-64
2022/08/05 06:32:47;;;;;;;1.00;1.00;;;25.10;99.90;;;;;;5071933;28;20214;-62
2022/08/05 06:35:14;;;;;;;1.13;1.02;;;25.20;99.90;;;;;;5057444;28;20199;-63
2022/08/05 06:37:41;;;;;;;1.33;1.23;;;25.30;99.90;;;;;;5065380;28;20575;-63
2022/08/05 06:40:09;;;;;;;1.17;1.17;;;25.50;99.90;;;;;;5066114;28;20203;-62
2022/08/05 06:42:36;;;;;;;1.73;1.00;;;25.80;99.90;;;;;;5065682;28;20294;-61
2022/08/05 06:45:04;;;;;;;1.10;1.10;;;26.10;99.90;;;;;;5066562;28;20283;-62
2022/08/05 06:47:33;;;;;;;1.30;1.20;;;26.30;99.90;;;;;;5068881;28;20195;-63
2022/08/05 06:50:00;;;;;;;1.17;1.10;;;26.60;99.90;;;;;;5068056;28;20242;-63
2022/08/05 06:52:26;;;;;;;1.13;1.00;;;26.90;99.90;;;;;;5056181;28;20295;-62
2022/08/05 06:54:53;;;;;;;1.13;1.13;;;26.90;99.90;;;;;;5060505;28;20217;-61
2022/08/05 06:57:20;;;;;;;1.23;1.10;;;26.90;99.90;;;;;;5060841;28;20200;-63
2022/08/05 06:59:47;;;;;;;0.88;0.88;;;26.90;99.90;;;;;;5065509;28;20314;-64
2022/08/05 07:02:14;;;;;;;1.00;1.00;;;26.90;99.90;;;;;;5068255;28;20275;-63
2022/08/05 07:04:42;;;;;;;1.00;1.00;;;26.90;99.90;;;;;;5064227;28;20235;-63
2022/08/05 07:07:09;;;;;;;1.00;1.00;;;26.90;99.90;;;;;;5063021;28;20268;-64
2022/08/05 07:09:36;;;;;;;0.95;0.95;;;26.90;99.90;;;;;;5061049;28;20315;-62
2022/08/05 07:12:03;;;;;;;1.00;0.90;;;26.90;99.90;;;;;;5059800;28;20207;-62
2022/08/05 07:17:15;;;;;;;2.15;1.10;;;26.80;99.90;;;;;;5053504;28;20234;-61
2022/08/05 07:19:43;;;;;;;1.58;0.93;;;27.10;99.90;;;;;;5060372;28;20318;-62
2022/08/05 07:22:10;;;;;;;0.98;0.95;;;27.40;99.90;;;;;;5062283;28;20296;-62
2022/08/05 07:24:37;;;;;;;2.80;1.20;;;27.70;99.90;;;;;;5060980;28;20260;-62
2022/08/05 07:27:04;;;;;;;4.20;1.17;;;27.80;99.90;;;;;;5065877;28;20230;-61
2022/08/05 07:29:31;;;;;;;1.00;1.00;;;27.80;99.90;;;;;;5064717;28;20229;-62
2022/08/05 07:31:58;;;;;;;1.00;1.00;;;28.00;99.90;;;;;;5061269;28;20298;-61
2022/08/05 07:34:24;;;;;;;0.90;0.90;;;27.90;99.90;;;;;;5064781;28;20203;-62
2022/08/05 07:36:53;;;;;;;1.67;1.08;;;28.00;99.90;;;;;;5066248;28;20305;-61
2022/08/05 07:39:20;;;;;;;1.10;1.10;;;28.00;99.90;;;;;;5066273;28;20219;-62
2022/08/05 07:41:47;;;;;;;1.10;1.00;;;28.10;99.90;;;;;;5066794;28;20243;-61
2022/08/05 07:44:14;;;;;;;0.70;0.70;;;28.30;99.90;;;;;;5065800;28;20231;-63
2022/08/05 07:46:41;;;;;;;0.88;0.88;;;28.40;99.90;;;;;;5066587;28;20204;-62
2022/08/05 07:49:08;;;;;;;0.90;0.90;;;28.40;99.90;;;;;;5059915;28;20228;-63
2022/08/05 07:51:37;;;;;;;0.55;0.55;;;28.30;99.90;;;;;;5058064;28;20269;-61
2022/08/05 07:54:07;;;;;;;0.80;0.80;;;28.30;99.90;;;;;;5065908;28;20286;-62
2022/08/05 07:56:35;;;;;;;0.70;0.70;;;28.30;99.90;;;;;;5054661;28;20196;-61
2022/08/05 07:59:02;;;;;;;0.85;0.85;;;28.40;99.90;;;;;;5062530;28;20223;-62
2022/08/05 08:01:30;;;;;;;0.80;0.80;;;28.50;99.90;;;;;;5072383;28;20246;-62
2022/08/05 08:03:57;;;;;;;0.65;0.65;;;28.60;99.90;;;;;;5066977;28;20203;-61
2022/08/05 08:06:24;;;;;;;0.98;0.98;;;28.70;99.90;;;;;;5070057;28;20234;-62
2022/08/05 08:08:51;;;;;;;0.70;0.70;;;28.70;99.90;;;;;;5064261;28;20299;-61
2022/08/05 08:11:19;;;;;;;0.80;0.80;;;28.90;99.90;;;;;;5069291;28;20561;-62
2022/08/05 08:13:46;;;;;;;0.80;0.80;;;29.00;99.90;;;;;;5067283;28;20204;-62
2022/08/05 08:16:13;;;;;;;0.90;0.90;;;29.10;99.90;;;;;;5064922;28;20211;-62
2022/08/05 08:18:39;;;;;;;0.68;0.68;;;29.30;99.90;;;;;;5063108;28;20251;-62
2022/08/05 08:21:07;;;;;;;0.90;0.90;;;29.30;99.90;;;;;;5050948;28;20204;-62
2022/08/05 08:23:34;;;;;;;0.63;0.63;;;29.60;99.90;;;;;;5065326;28;20294;-62
2022/08/05 08:26:01;;;;;;;0.90;0.90;;;29.60;99.90;;;;;;5065999;28;20222;-62
2022/08/05 08:28:30;;;;;;;0.80;0.80;;;29.80;99.90;;;;;;5070246;28;20281;-62
2022/08/05 08:30:57;;;;;;;0.73;0.73;;;29.80;99.90;;;;;;5062202;28;20231;-63
2022/08/05 08:33:24;;;;;;;0.80;0.80;;;29.90;99.90;;;;;;5056116;28;20298;-61
2022/08/05 08:35:51;;;;;;;0.80;0.80;;;29.80;99.90;;;;;;5059392;28;20239;-61
2022/08/05 08:38:18;;;;;;;0.70;0.70;;;29.80;99.90;;;;;;5063024;28;20222;-61
2022/08/05 08:40:45;;;;;;;0.70;0.70;;;29.80;99.90;;;;;;5070251;28;20245;-61
2022/08/05 08:43:13;;;;;;;0.63;0.63;;;29.70;99.90;;;;;;5066087;28;20299;-62
2022/08/05 08:45:43;;;;;;;0.80;0.80;;;29.90;99.90;;;;;;5056995;28;20621;-62
2022/08/05 08:48:12;;;;;;;0.52;0.52;;;30.10;99.90;;;;;;5058492;28;20223;-62
2022/08/05 08:50:41;;;;;;;0.70;0.70;;;30.20;99.90;;;;;;5059829;28;20326;-62
2022/08/05 08:53:11;;;;;;;2.10;1.50;;;30.30;99.90;;;;;;5058375;28;20212;-61
2022/08/05 08:55:40;;;;;;;0.70;0.70;;;30.30;99.90;;;;;;5052808;28;20202;-62
2022/08/05 08:58:07;;;;;;;0.70;0.70;;;30.30;99.90;;;;;;5054194;28;20454;-64
2022/08/05 09:00:35;;;;;;;0.60;0.60;;;30.40;99.90;;;;;;5054997;28;20199;-63
2022/08/05 09:03:05;;;;;;;0.60;0.60;;;30.60;99.90;;;;;;5057167;28;20204;-63
2022/08/05 09:05:32;;;;;;;0.60;0.60;;;30.70;99.90;;;;;;5054763;28;20287;-63
2022/08/05 09:07:59;;;;;;;0.57;0.57;;;30.70;99.90;;;;;;5051352;28;20434;-63
2022/08/05 09:10:26;;;;;;;0.60;0.60;;;30.50;99.90;;;;;;5058786;28;20216;-63
2022/08/05 09:12:53;;;;;;;0.63;0.63;;;30.50;99.90;;;;;;5059761;28;20494;-63
2022/08/05 09:15:20;;;;;;;0.63;0.63;;;30.60;99.90;;;;;;5066274;28;21045;-63
2022/08/05 09:17:47;;;;;;;0.65;0.65;;;30.60;99.90;;;;;;5060545;28;20292;-63
2022/08/05 09:20:15;;;;;;;0.65;0.65;;;30.70;99.90;;;;;;5058521;28;20773;-63
2022/08/05 09:23:05;;;;;;;0.70;0.70;;;30.90;99.90;;;;;;5062468;28;20207;-63
2022/08/05 09:25:32;;;;;;;0.70;0.70;;;31.00;99.90;;;;;;5063954;28;20204;-62
2022/08/05 09:28:09;;;;;;;0.60;0.60;;;31.10;99.90;;;;;;5059957;28;20223;-63
2022/08/05 09:30:36;;;;;;;0.57;0.57;;;31.30;99.90;;;;;;5063022;28;20676;-64
2022/08/05 09:33:04;;;;;;;0.60;0.60;;;31.50;99.90;;;;;;5062255;28;20218;-63
2022/08/05 09:35:32;;;;;;;0.82;0.80;;;31.30;99.90;;;;;;5064453;28;20204;-63
2022/08/05 09:38:00;;;;;;;0.80;0.80;;;31.30;99.90;;;;;;5058337;28;20269;-64
2022/08/05 09:40:31;;;;;;;0.70;0.70;;;31.20;99.90;;;;;;5055002;28;20279;-64
2022/08/05 09:42:58;;;;;;;0.82;0.82;;;31.10;99.90;;;;;;5057726;28;20300;-63
2022/08/05 09:45:36;;;;;;;0.70;0.70;;;31.20;99.90;;;;;;5057331;28;20220;-62
2022/08/05 09:48:25;;;;;;;1.45;0.73;;;31.30;99.90;;;;;;5062705;28;20228;-64
2022/08/05 09:50:56;;;;;;;0.80;0.80;;;31.40;99.90;;;;;;5067064;28;20231;-63
2022/08/05 09:53:23;;;;;;;0.80;0.80;;;31.50;99.90;;;;;;5061731;28;20571;-62
2022/08/05 09:55:55;;;;;;;0.70;0.70;;;31.50;99.90;;;;;;5066480;28;20195;-63
2022/08/05 09:58:22;;;;;;;0.70;0.70;;;31.30;99.90;;;;;;5074107;28;20214;-63
2022/08/05 10:00:58;;;;;;;0.80;0.80;;;31.30;99.90;;;;;;5072902;28;20207;-64
2022/08/05 10:03:25;;;;;;;0.82;0.82;;;31.30;99.90;;;;;;5074688;28;20235;-64
2022/08/05 10:06:04;;;;;;;0.73;0.73;;;31.50;99.90;;;;;;5060206;28;20207;-64
2022/08/05 10:08:32;;;;;;;0.85;0.85;;;31.70;99.90;;;;;;5062346;28;20218;-63
2022/08/05 10:10:59;;;;;;;0.88;0.70;;;31.50;99.90;;;;;;5064091;28;20235;-63
2022/08/05 10:13:28;;;;;;;0.80;0.80;;;31.60;99.90;;;;;;5060118;28;20573;-64
2022/08/05 10:15:57;;;;;;;0.57;0.57;;;31.70;99.90;;;;;;5059487;28;20245;-63
2022/08/05 10:18:26;;;;;;;0.70;0.70;;;31.90;99.90;;;;;;5061655;28;20235;-64
2022/08/05 10:20:55;;;;;;;0.73;0.73;;;32.00;99.90;;;;;;5065346;28;20217;-63
2022/08/05 10:23:26;;;;;;;0.90;0.90;;;32.20;99.90;;;;;;5064702;28;20225;-63
2022/08/05 10:25:54;;;;;;;0.60;0.60;;;32.20;99.90;;;;;;5068219;28;20209;-63
2022/08/05 10:28:22;;;;;;;0.70;0.70;;;32.20;99.90;;;;;;5059193;28;20710;-63
2022/08/05 10:30:49;;;;;;;0.70;0.70;;;32.20;99.90;;;;;;5058084;28;20215;-63
2022/08/05 10:33:18;;;;;;;0.98;0.88;;;31.80;99.90;;;;;;5057717;28;20429;-62
2022/08/05 10:35:44;;;;;;;0.73;0.73;;;31.60;99.90;;;;;;5050522;28;20212;-62
2022/08/05 10:38:13;;;;;;;0.80;0.80;;;31.60;99.90;;;;;;5060122;28;20734;-66
2022/08/05 10:40:51;;;;;;;0.70;0.70;;;31.50;99.90;;;;;;5064421;28;20199;-63
2022/08/05 10:43:30;;;;;;;0.80;0.80;;;31.50;99.90;;;;;;5056307;28;20227;-65
2022/08/05 10:45:58;;;;;;;0.65;0.65;;;31.50;99.90;;;;;;5058661;28;20330;-64
2022/08/05 10:48:36;;;;;;;1.25;0.88;;;31.30;99.90;;;;;;5060427;28;20231;-64
2022/08/05 10:51:07;;;;;;;0.80;0.80;;;31.50;99.90;;;;;;5063793;28;20219;-64
2022/08/05 10:53:40;;;;;;;0.80;0.80;;;31.80;99.90;;;;;;5058276;28;20290;-64
2022/08/05 10:56:13;;;;;;;0.90;0.90;;;31.90;99.90;;;;;;5056648;28;20209;-63
2022/08/05 10:59:06;;;;;;;1.02;0.90;;;32.00;99.90;;;;;;5061242;28;20215;-62
2022/08/05 11:01:34;;;;;;;0.80;0.80;;;32.10;99.90;;;;;;5059415;28;20286;-63
2022/08/05 11:04:08;;;;;;;0.80;0.80;;;31.90;99.90;;;;;;5062057;28;20290;-63
2022/08/05 11:06:55;;;;;;;0.70;0.70;;;31.80;99.90;;;;;;5064451;28;20285;-64
2022/08/05 11:09:24;;;;;;;0.80;0.80;;;31.80;99.90;;;;;;5068768;28;20246;-64
2022/08/05 11:11:53;;;;;;;0.90;0.90;;;32.00;99.90;;;;;;5064979;28;20223;-63
2022/08/05 11:14:25;;;;;;;0.80;0.80;;;31.80;99.90;;;;;;5057750;28;20333;-64
2022/08/05 11:17:37;;;;;;;0.80;0.80;;;31.80;99.90;;;;;;5067037;28;20211;-64
2022/08/05 11:20:05;;;;;;;0.80;0.80;;;32.00;99.90;;;;;;5038827;28;20290;-65
2022/08/05 11:22:40;;;;;;;0.93;0.93;;;32.40;99.90;;;;;;5059429;28;20204;-65
2022/08/05 11:25:32;;;;;;;0.80;0.80;;;32.40;99.90;;;;;;5068021;28;20217;-63
2022/08/05 11:28:32;;;;;;;0.70;0.65;;;32.30;99.90;;;;;;5061227;28;20231;-63
2022/08/05 11:31:32;;;;;;;0.90;0.90;;;32.30;99.90;;;;;;5063897;28;20257;-63
2022/08/05 11:34:05;;;;;;;0.75;0.75;;;32.00;99.90;;;;;;5056693;28;20195;-62
2022/08/05 11:36:50;;;;;;;0.82;0.82;;;32.20;99.90;;;;;;5062457;28;20207;-63
2022/08/05 11:39:48;;;;;;;0.90;0.90;;;32.40;99.90;;;;;;5064910;28;20231;-63
2022/08/05 11:42:17;;;;;;;0.85;0.85;;;32.20;99.90;;;;;;5066201;28;20192;-63
2022/08/05 11:44:44;;;;;;;0.50;0.50;;;32.10;99.90;;;;;;5065295;28;20191;-64
2022/08/05 11:47:13;;;;;;;0.82;0.82;;;32.00;99.90;;;;;;5062296;28;20579;-63
2022/08/05 11:49:40;;;;;;;0.70;0.70;;;32.40;99.90;;;;;;5066718;28;20227;-63
2022/08/05 11:52:09;;;;;;;0.80;0.80;;;32.50;99.90;;;;;;5068029;28;20203;-63
2022/08/05 11:54:37;;;;;;;0.65;0.65;;;32.50;99.90;;;;;;5067407;28;20227;-63
2022/08/05 11:57:05;;;;;;;0.80;0.80;;;32.40;99.90;;;;;;5065512;28;20661;-64
2022/08/05 11:59:33;;;;;;;0.80;0.80;;;32.40;99.90;;;;;;5063281;28;20247;-66
2022/08/05 12:02:02;;;;;;;0.65;0.65;;;32.40;99.90;;;;;;5064226;28;20203;-62
2022/08/05 12:04:39;;;;;;;1.08;0.82;;;32.30;99.90;;;;;;5068696;28;20204;-64
2022/08/05 12:07:07;;;;;;;0.93;0.93;;;32.40;99.90;;;;;;5059462;28;20546;-63
2022/08/05 12:09:38;;;;;;;0.90;0.90;;;32.60;99.90;;;;;;5061777;28;20782;-64
2022/08/05 12:12:06;;;;;;;0.75;0.75;;;32.70;99.90;;;;;;5056318;28;20694;-62
2022/08/05 12:14:38;;;;;;;0.82;0.82;;;32.80;99.90;;;;;;5058827;28;20242;-63
2022/08/05 12:17:09;;;;;;;0.80;0.80;;;32.90;99.90;;;;;;5063059;28;20279;-63
2022/08/05 12:19:43;;;;;;;0.90;0.90;;;33.10;99.90;;;;;;5057836;28;21720;-63
2022/08/05 12:22:11;;;;;;;0.80;0.80;;;33.20;99.90;;;;;;5070846;22;20318;-68
2022/08/05 12:24:42;;;;;;;0.80;0.80;;;33.40;99.90;;;;;;5053832;28;20208;-68
2022/08/05 12:27:09;;;;;;;1.00;0.90;;;33.60;99.90;;;;;;5054317;28;20210;-68
2022/08/05 12:29:36;;;;;;;0.98;0.93;;;33.60;99.90;;;;;;5047278;28;20811;-67
2022/08/05 12:32:06;;;;;;;0.85;0.85;;;33.60;99.90;;;;;;5052022;28;20220;-68
2022/08/05 12:34:36;;;;;;;0.70;0.70;;;33.60;99.90;;;;;;5058621;28;20200;-67
2022/08/05 12:37:10;;;;;;;0.73;0.73;;;33.50;99.90;;;;;;5047482;28;20204;-68
2022/08/05 12:39:38;;;;;;;0.70;0.65;;;33.50;99.90;;;;;;5047686;28;20207;-70
2022/08/05 12:42:09;;;;;;;0.77;0.77;;;33.30;99.90;;;;;;5052011;28;20222;-67
2022/08/05 12:44:37;;;;;;;0.60;0.60;;;33.30;99.90;;;;;;5062151;28;20296;-68
2022/08/05 12:47:04;;;;;;;1.05;0.80;;;33.40;99.90;;;;;;5057465;28;20211;-67
2022/08/05 12:49:43;;;;;;;0.80;0.80;;;33.40;99.90;;;;;;5058756;28;20208;-68
2022/08/05 12:52:15;;;;;;;0.80;0.80;;;33.60;99.90;;;;;;5061862;28;20310;-67
2022/08/05 12:54:43;;;;;;;0.70;0.70;;;33.60;99.90;;;;;;5055795;28;20299;-68
2022/08/05 12:57:11;;;;;;;1.13;0.90;;;33.20;99.90;;;;;;5062144;28;20211;-68
2022/08/05 12:59:47;;;;;;;0.90;0.90;;;33.20;99.90;;;;;;5053287;28;20578;-69
2022/08/05 13:02:18;;;;;;;1.45;0.80;;;33.20;99.90;;;;;;5048165;28;20225;-69